createdAt,value
2019-04-30T00:00:25.796Z,5.17
2019-04-30T00:03:01.908Z,8.23
2019-04-30T00:05:31.607Z,6.80
2019-04-30T00:08:01.337Z,6.65
2019-04-30T00:10:36.900Z,4.70
2019-04-30T00:13:02.480Z,6.50
2019-04-30T00:15:32.198Z,5.70
2019-04-30T00:18:02.263Z,5.33
2019-04-30T00:20:35.185Z,6.00
2019-04-30T00:23:05.151Z,7.60
2019-04-30T00:25:35.532Z,7.40
2019-04-30T00:28:08.703Z,4.80
2019-04-30T00:30:39.377Z,9.00
2019-04-30T00:33:09.109Z,5.08
2019-04-30T00:35:38.837Z,5.75
2019-04-30T00:38:08.544Z,5.72
2019-04-30T00:40:38.236Z,5.87
2019-04-30T00:43:09.086Z,5.90
2019-04-30T00:45:44.081Z,5.87
2019-04-30T00:48:12.586Z,4.67
2019-04-30T00:50:42.669Z,4.85
2019-04-30T00:53:14.304Z,7.07
2019-04-30T00:55:46.812Z,4.35
2019-04-30T00:58:19.689Z,6.90
2019-04-30T01:01:08.121Z,7.83
2019-04-30T01:03:39.538Z,5.23
2019-04-30T01:06:10.197Z,6.50
2019-04-30T01:08:39.893Z,5.60
2019-04-30T01:11:09.790Z,5.53
2019-04-30T01:13:45.561Z,6.33
2019-04-30T01:16:11.036Z,7.60
2019-04-30T01:18:40.831Z,6.53
2019-04-30T01:21:11.328Z,6.67
2019-04-30T01:23:48.091Z,5.47
2019-04-30T01:26:12.935Z,4.40
2019-04-30T01:28:42.952Z,6.83
2019-04-30T01:31:12.622Z,4.97
2019-04-30T01:33:42.296Z,4.20
2019-04-30T01:36:13.443Z,6.33
2019-04-30T01:38:44.783Z,6.78
2019-04-30T01:41:14.599Z,6.25
2019-04-30T01:43:44.260Z,4.70
2019-04-30T01:46:14.088Z,3.65
2019-04-30T01:48:48.663Z,5.78
2019-04-30T01:51:20.455Z,4.72
2019-04-30T01:53:48.531Z,6.80
2019-04-30T01:56:49.868Z,7.37
2019-04-30T01:59:25.821Z,5.85
2019-04-30T02:01:55.583Z,4.60
2019-04-30T02:04:25.257Z,4.42
2019-04-30T02:06:55.000Z,4.28
2019-04-30T02:09:24.768Z,4.25
2019-04-30T02:11:54.874Z,4.33
2019-04-30T02:14:24.579Z,5.28
2019-04-30T02:16:54.996Z,6.17
2019-04-30T02:19:24.692Z,6.15
2019-04-30T02:21:54.408Z,4.83
2019-04-30T02:24:24.216Z,5.25
2019-04-30T02:26:53.992Z,5.12
2019-04-30T02:29:23.780Z,3.80
2019-04-30T02:31:53.488Z,4.87
2019-04-30T02:34:30.434Z,4.75
2019-04-30T02:37:16.033Z,4.03
2019-04-30T02:39:45.774Z,4.58
2019-04-30T02:42:15.866Z,5.80
2019-04-30T02:44:45.939Z,5.17
2019-04-30T02:47:16.932Z,5.03
2019-04-30T02:49:46.622Z,3.92
2019-04-30T02:52:19.410Z,4.90
2019-04-30T02:54:50.116Z,5.00
2019-04-30T02:57:23.322Z,5.22
2019-04-30T03:00:26.038Z,5.85
2019-04-30T03:02:55.869Z,3.60
2019-04-30T03:05:25.598Z,4.17
2019-04-30T03:07:55.331Z,3.67
2019-04-30T03:10:25.057Z,5.60
2019-04-30T03:12:54.728Z,7.13
2019-04-30T03:15:24.467Z,4.47
2019-04-30T03:18:03.271Z,4.20
2019-04-30T03:20:52.085Z,3.98
2019-04-30T03:23:21.876Z,4.03
2019-04-30T03:25:51.639Z,3.60
2019-04-30T03:28:21.370Z,3.98
2019-04-30T03:30:57.176Z,4.60
2019-04-30T03:33:23.399Z,3.83
2019-04-30T03:35:54.730Z,5.45
2019-04-30T03:38:24.759Z,4.03
2019-04-30T03:40:54.592Z,4.47
2019-04-30T03:43:24.406Z,5.42
2019-04-30T03:45:54.061Z,4.83
2019-04-30T03:48:23.777Z,3.77
2019-04-30T03:50:56.729Z,4.20
2019-04-30T03:53:24.886Z,4.47
2019-04-30T03:55:54.552Z,3.92
2019-04-30T03:58:24.337Z,4.55
2019-04-30T04:01:12.338Z,5.33
2019-04-30T04:04:00.547Z,4.25
2019-04-30T04:06:35.946Z,5.40
2019-04-30T04:09:11.930Z,3.40
2019-04-30T04:11:42.285Z,4.25
2019-04-30T04:14:11.988Z,3.80
2019-04-30T04:16:41.658Z,8.30
2019-04-30T04:19:11.353Z,3.58
2019-04-30T04:21:41.065Z,5.78
2019-04-30T04:24:10.873Z,4.15
2019-04-30T04:26:43.864Z,4.90
2019-04-30T04:29:13.395Z,5.58
2019-04-30T04:31:44.157Z,4.87
2019-04-30T04:34:13.836Z,5.95
2019-04-30T04:36:43.763Z,6.75
2019-04-30T04:39:14.612Z,5.28
2019-04-30T04:41:44.402Z,6.28
2019-04-30T04:44:14.361Z,7.50
2019-04-30T04:46:44.333Z,6.20
2019-04-30T04:49:14.003Z,5.12
2019-04-30T04:51:44.115Z,5.17
2019-04-30T04:54:13.801Z,3.70
2019-04-30T04:56:43.906Z,6.20
2019-04-30T04:59:13.586Z,4.78
2019-04-30T05:01:43.380Z,4.85
2019-04-30T05:04:13.132Z,6.35
2019-04-30T05:06:43.494Z,5.15
2019-04-30T05:09:13.193Z,5.73
2019-04-30T05:11:43.248Z,3.90
2019-04-30T05:14:13.014Z,3.55
2019-04-30T05:16:43.026Z,4.37
2019-04-30T05:19:13.683Z,7.30
2019-04-30T05:21:44.877Z,4.40
2019-04-30T05:24:14.941Z,4.03
2019-04-30T05:26:44.654Z,4.80
2019-04-30T05:29:14.325Z,4.60
2019-04-30T05:31:44.031Z,4.65
2019-04-30T05:34:13.739Z,4.47
2019-04-30T05:36:43.480Z,4.47
2019-04-30T05:39:13.226Z,5.10
2019-04-30T05:41:43.001Z,4.70
2019-04-30T05:44:12.733Z,4.55
2019-04-30T05:46:42.816Z,4.53
2019-04-30T05:49:12.896Z,5.65
2019-04-30T05:51:52.770Z,4.40
2019-04-30T05:54:14.064Z,6.83
2019-04-30T05:56:43.828Z,7.05
2019-04-30T05:59:13.494Z,5.95
2019-04-30T06:01:47.986Z,5.35
2019-04-30T06:04:14.648Z,6.93
2019-04-30T06:06:44.405Z,6.67
2019-04-30T06:09:31.632Z,6.53
2019-04-30T06:12:11.409Z,7.62
2019-04-30T06:14:51.593Z,7.50
2019-04-30T06:17:20.396Z,6.87
2019-04-30T06:19:51.458Z,7.33
2019-04-30T06:22:21.682Z,6.35
2019-04-30T06:24:51.348Z,6.30
2019-04-30T06:27:21.255Z,7.72
2019-04-30T06:29:50.949Z,8.10
2019-04-30T06:32:21.097Z,7.05
2019-04-30T06:34:50.803Z,7.13
2019-04-30T06:37:20.717Z,5.97
2019-04-30T06:39:50.441Z,10.40
2019-04-30T06:42:20.142Z,9.00
2019-04-30T06:44:49.902Z,7.87
2019-04-30T06:47:32.204Z,6.83
2019-04-30T06:49:51.157Z,6.80
2019-04-30T06:52:23.554Z,6.42
2019-04-30T06:54:52.325Z,8.75
2019-04-30T06:57:22.033Z,7.17
2019-04-30T06:59:51.825Z,6.90
2019-04-30T07:02:21.624Z,8.25
2019-04-30T07:04:51.311Z,6.78
2019-04-30T07:07:23.180Z,6.67
2019-04-30T07:10:01.796Z,9.58
2019-04-30T07:12:59.726Z,8.90
2019-04-30T07:15:29.703Z,8.90
2019-04-30T07:17:59.459Z,8.15
2019-04-30T07:20:29.295Z,5.60
2019-04-30T07:23:02.991Z,10.03
2019-04-30T07:25:30.335Z,8.07
2019-04-30T07:28:00.017Z,11.50
2019-04-30T07:30:31.001Z,9.47
2019-04-30T07:33:00.794Z,9.97
2019-04-30T07:35:30.492Z,7.73
2019-04-30T07:38:04.709Z,7.00
2019-04-30T07:40:31.652Z,10.75
2019-04-30T07:43:01.340Z,10.70
2019-04-30T07:45:32.269Z,9.85
2019-04-30T07:48:02.271Z,10.40
2019-04-30T07:50:32.755Z,13.32
2019-04-30T07:53:06.459Z,9.80
2019-04-30T07:55:35.226Z,9.10
2019-04-30T07:58:05.131Z,8.28
2019-04-30T08:00:34.822Z,9.50
2019-04-30T08:03:15.214Z,7.08
2019-04-30T08:05:46.081Z,7.47
2019-04-30T08:08:21.490Z,7.87
2019-04-30T08:10:50.806Z,8.10
2019-04-30T08:13:21.881Z,10.30
2019-04-30T08:15:50.717Z,10.08
2019-04-30T08:18:20.517Z,9.80
2019-04-30T08:20:50.617Z,7.10
2019-04-30T08:23:33.555Z,10.28
2019-04-30T08:25:52.030Z,11.80
2019-04-30T08:28:22.010Z,8.10
2019-04-30T08:30:51.887Z,9.60
2019-04-30T08:33:21.892Z,7.55
2019-04-30T08:35:51.638Z,13.93
2019-04-30T08:38:21.312Z,9.13
2019-04-30T08:40:56.134Z,9.93
2019-04-30T08:43:22.465Z,9.53
2019-04-30T08:45:52.143Z,11.22
2019-04-30T08:48:21.896Z,8.60
2019-04-30T08:50:51.685Z,11.65
2019-04-30T08:53:29.806Z,8.58
2019-04-30T08:55:52.982Z,9.87
2019-04-30T08:58:22.705Z,8.50
2019-04-30T09:00:52.414Z,9.65
2019-04-30T09:03:22.151Z,7.78
2019-04-30T09:06:11.631Z,8.55
2019-04-30T09:08:42.842Z,9.73
2019-04-30T09:11:22.577Z,10.28
2019-04-30T09:13:44.036Z,9.55
2019-04-30T09:16:13.795Z,7.90
2019-04-30T09:18:45.069Z,10.95
2019-04-30T09:21:14.760Z,8.25
2019-04-30T09:23:49.919Z,7.50
2019-04-30T09:26:15.830Z,10.05
2019-04-30T09:28:45.531Z,9.05
2019-04-30T09:31:15.601Z,8.50
2019-04-30T09:33:46.766Z,12.35
2019-04-30T09:36:16.507Z,8.65
2019-04-30T09:38:48.518Z,8.03
2019-04-30T09:41:19.369Z,7.80
2019-04-30T09:43:49.488Z,9.13
2019-04-30T09:46:26.829Z,7.67
2019-04-30T09:48:50.961Z,9.98
2019-04-30T09:51:24.051Z,8.48
2019-04-30T09:53:59.054Z,9.98
2019-04-30T09:56:23.624Z,10.23
2019-04-30T09:58:53.425Z,8.60
2019-04-30T10:01:23.249Z,9.00
2019-04-30T10:03:53.513Z,11.57
2019-04-30T10:06:36.052Z,8.88
2019-04-30T10:08:55.012Z,11.65
2019-04-30T10:11:41.970Z,10.45
2019-04-30T10:14:11.662Z,7.40
2019-04-30T10:16:47.334Z,6.85
2019-04-30T10:19:19.179Z,7.80
2019-04-30T10:21:49.566Z,8.70
2019-04-30T10:24:19.764Z,7.35
2019-04-30T10:26:49.455Z,7.83
2019-04-30T10:29:20.758Z,7.10
2019-04-30T10:31:50.504Z,6.58
2019-04-30T10:34:20.177Z,5.60
2019-04-30T10:36:50.300Z,6.47
2019-04-30T10:39:21.714Z,6.45
2019-04-30T10:41:51.380Z,7.20
2019-04-30T10:44:21.104Z,10.05
2019-04-30T10:46:50.787Z,8.18
2019-04-30T10:49:20.465Z,6.37
2019-04-30T10:51:51.204Z,7.25
2019-04-30T10:54:26.025Z,6.65
2019-04-30T10:56:53.435Z,7.70
2019-04-30T10:59:23.200Z,7.58
2019-04-30T11:01:52.970Z,7.23
2019-04-30T11:04:22.650Z,9.20
2019-04-30T11:06:52.398Z,9.93
2019-04-30T11:09:22.073Z,8.30
2019-04-30T11:11:51.852Z,7.15
2019-04-30T11:14:21.594Z,8.55
2019-04-30T11:16:51.786Z,8.18
2019-04-30T11:19:21.942Z,7.80
2019-04-30T11:21:51.957Z,9.00
2019-04-30T11:24:21.971Z,7.37
2019-04-30T11:26:52.491Z,7.20
2019-04-30T11:29:23.154Z,7.53
2019-04-30T11:32:04.873Z,7.67
2019-04-30T11:34:35.821Z,6.10
2019-04-30T11:37:05.494Z,7.92
2019-04-30T11:39:35.158Z,6.67
2019-04-30T11:42:04.856Z,7.60
2019-04-30T11:44:34.557Z,6.80
2019-04-30T11:47:24.252Z,7.92
2019-04-30T11:49:54.281Z,6.40
2019-04-30T11:52:24.997Z,7.80
2019-04-30T11:54:55.032Z,9.40
2019-04-30T11:57:24.706Z,6.70
2019-04-30T11:59:54.427Z,7.90
2019-04-30T12:02:29.359Z,5.03
2019-04-30T12:04:59.146Z,4.92
2019-04-30T12:07:41.916Z,4.10
2019-04-30T12:10:20.377Z,4.10
2019-04-30T12:12:50.070Z,4.58
2019-04-30T12:15:19.765Z,4.63
2019-04-30T12:17:49.488Z,5.03
2019-04-30T12:20:19.660Z,4.47
2019-04-30T12:22:49.649Z,6.17
2019-04-30T12:25:20.412Z,6.10
2019-04-30T12:27:50.210Z,5.83
2019-04-30T12:30:20.812Z,5.45
2019-04-30T12:32:50.586Z,7.47
2019-04-30T12:35:20.279Z,8.33
2019-04-30T12:37:52.374Z,8.40
2019-04-30T12:40:29.091Z,6.80
2019-04-30T12:42:53.756Z,6.60
2019-04-30T12:45:23.504Z,6.97
2019-04-30T12:47:56.705Z,7.25
2019-04-30T12:50:49.157Z,6.45
2019-04-30T12:53:27.243Z,5.40
2019-04-30T12:56:06.573Z,8.28
2019-04-30T12:58:36.430Z,7.53
2019-04-30T13:01:06.300Z,6.50
2019-04-30T13:03:36.070Z,8.18
2019-04-30T13:06:06.443Z,7.87
2019-04-30T13:08:36.980Z,6.65
2019-04-30T13:11:07.507Z,5.87
2019-04-30T13:13:40.622Z,6.20
2019-04-30T13:16:10.160Z,6.22
2019-04-30T13:18:39.841Z,5.57
2019-04-30T13:21:09.527Z,6.50
2019-04-30T13:23:39.239Z,6.92
2019-04-30T13:26:09.083Z,6.72
2019-04-30T13:29:02.245Z,5.75
2019-04-30T13:31:32.061Z,6.30
2019-04-30T13:34:27.186Z,5.90
2019-04-30T13:36:57.010Z,5.10
2019-04-30T13:39:31.977Z,6.40
2019-04-30T13:42:29.234Z,5.83
2019-04-30T13:44:58.438Z,7.37
2019-04-30T13:47:29.260Z,6.05
2019-04-30T13:49:59.456Z,6.33
2019-04-30T13:52:30.938Z,6.53
2019-04-30T13:55:00.772Z,9.88
2019-04-30T13:57:30.460Z,6.80
2019-04-30T14:00:00.144Z,7.30
2019-04-30T14:02:33.412Z,4.67
2019-04-30T14:05:14.105Z,5.00
2019-04-30T14:07:53.828Z,4.47
2019-04-30T14:10:23.656Z,5.72
2019-04-30T14:12:57.088Z,7.55
2019-04-30T14:15:26.841Z,5.30
2019-04-30T14:17:56.585Z,6.40
2019-04-30T14:20:26.289Z,10.77
2019-04-30T14:22:57.613Z,6.42
2019-04-30T14:25:27.917Z,6.28
2019-04-30T14:27:59.280Z,4.00
2019-04-30T14:30:29.354Z,7.40
2019-04-30T14:32:59.367Z,5.20
2019-04-30T14:35:30.944Z,4.80
2019-04-30T14:38:00.614Z,5.10
2019-04-30T14:40:30.968Z,5.47
2019-04-30T14:43:21.937Z,5.42
2019-04-30T14:46:05.006Z,5.72
2019-04-30T14:48:40.870Z,5.90
2019-04-30T14:51:12.162Z,4.83
2019-04-30T14:54:04.238Z,5.85
2019-04-30T14:56:39.425Z,5.47
2019-04-30T14:59:39.421Z,6.67
2019-04-30T15:02:16.549Z,4.03
2019-04-30T15:04:46.232Z,4.97
2019-04-30T15:07:15.896Z,6.37
2019-04-30T15:09:45.632Z,5.12
2019-04-30T15:12:15.336Z,5.10
2019-04-30T15:14:45.453Z,6.13
2019-04-30T15:17:15.145Z,5.50
2019-04-30T15:19:45.788Z,4.20
2019-04-30T15:22:15.520Z,4.30
2019-04-30T15:24:45.360Z,4.70
2019-04-30T15:27:15.052Z,5.20
2019-04-30T15:29:44.745Z,6.40
2019-04-30T15:32:14.540Z,4.87
2019-04-30T15:34:44.401Z,4.80
2019-04-30T15:37:21.189Z,5.63
2019-04-30T15:39:46.592Z,5.67
2019-04-30T15:42:17.125Z,4.20
2019-04-30T15:44:46.895Z,4.20
2019-04-30T15:47:18.586Z,4.40
2019-04-30T15:49:48.506Z,5.55
2019-04-30T15:52:18.975Z,5.30
2019-04-30T15:54:49.129Z,4.12
2019-04-30T15:57:19.331Z,4.62
2019-04-30T15:59:49.081Z,4.97
2019-04-30T16:02:56.325Z,4.22
2019-04-30T16:05:26.888Z,5.62
2019-04-30T16:08:03.131Z,5.75
2019-04-30T16:10:51.973Z,4.20
2019-04-30T16:13:24.150Z,5.07
2019-04-30T16:15:53.985Z,4.45
2019-04-30T16:18:25.248Z,6.25
2019-04-30T16:20:54.999Z,4.75
2019-04-30T16:23:24.707Z,4.53
2019-04-30T16:25:54.478Z,4.72
2019-04-30T16:28:24.185Z,4.53
2019-04-30T16:30:53.895Z,4.45
2019-04-30T16:33:23.626Z,4.83
2019-04-30T16:35:54.898Z,5.45
2019-04-30T16:41:30.401Z,4.72
2019-04-30T16:43:50.481Z,6.42
2019-04-30T16:46:20.478Z,5.83
2019-04-30T16:48:50.546Z,6.33
2019-04-30T16:51:29.334Z,5.17
2019-04-30T16:53:59.710Z,5.60
2019-04-30T16:56:29.873Z,4.65
2019-04-30T16:59:00.080Z,5.40
2019-04-30T17:01:30.470Z,6.05
2019-04-30T17:04:13.004Z,5.47
2019-04-30T17:06:48.811Z,4.67
2019-04-30T17:09:56.034Z,5.85
2019-04-30T17:12:45.153Z,6.50
2019-04-30T17:15:19.251Z,4.53
2019-04-30T17:17:50.470Z,3.80
2019-04-30T17:20:20.842Z,5.63
2019-04-30T17:22:51.230Z,5.15
2019-04-30T17:25:24.341Z,4.90
2019-04-30T17:27:56.252Z,5.12
2019-04-30T17:30:26.788Z,4.22
2019-04-30T17:32:56.829Z,4.65
2019-04-30T17:35:28.958Z,5.15
2019-04-30T17:37:59.376Z,5.70
2019-04-30T17:40:33.178Z,4.53
2019-04-30T17:43:03.258Z,4.28
2019-04-30T17:45:33.257Z,5.17
2019-04-30T17:48:03.041Z,5.58
2019-04-30T17:50:35.414Z,6.33
2019-04-30T17:53:05.246Z,4.17
2019-04-30T17:55:35.097Z,3.25
2019-04-30T17:58:05.187Z,6.00
2019-04-30T18:00:43.223Z,4.65
2019-04-30T18:03:13.195Z,4.10
2019-04-30T18:05:43.218Z,3.58
2019-04-30T18:08:16.260Z,5.17
2019-04-30T18:10:46.147Z,6.60
2019-04-30T18:13:16.090Z,4.08
2019-04-30T18:15:48.276Z,6.35
2019-04-30T18:18:29.664Z,4.95
2019-04-30T18:21:19.000Z,5.65
2019-04-30T18:24:12.963Z,6.55
2019-04-30T18:26:48.564Z,4.87
2019-04-30T18:29:18.523Z,4.33
2019-04-30T18:31:48.431Z,5.00
2019-04-30T18:34:19.491Z,3.83
2019-04-30T18:36:51.270Z,6.87
2019-04-30T18:39:21.474Z,4.83
2019-04-30T18:41:51.517Z,6.50
2019-04-30T18:44:21.484Z,4.55
2019-04-30T18:46:51.498Z,6.67
2019-04-30T18:49:21.555Z,4.03
2019-04-30T18:51:51.853Z,3.50
2019-04-30T18:54:24.891Z,4.30
2019-04-30T18:56:55.269Z,4.28
2019-04-30T18:59:33.835Z,4.12
2019-04-30T19:02:17.508Z,6.03
2019-04-30T19:05:06.007Z,4.78
2019-04-30T19:07:59.512Z,3.87
2019-04-30T19:10:44.794Z,5.47
2019-04-30T19:13:51.084Z,4.53
2019-04-30T19:16:41.990Z,3.47
2019-04-30T19:19:20.961Z,4.30
2019-04-30T19:21:50.735Z,4.22
2019-04-30T19:24:20.440Z,3.87
2019-04-30T19:26:50.174Z,5.42
2019-04-30T19:29:19.909Z,4.10
2019-04-30T19:31:49.950Z,3.27
2019-04-30T19:34:19.734Z,3.85
2019-04-30T19:36:49.937Z,3.72
2019-04-30T19:39:20.085Z,4.30
2019-04-30T19:41:49.844Z,5.45
2019-04-30T19:44:20.897Z,5.67
2019-04-30T19:46:50.896Z,5.30
2019-04-30T19:49:20.557Z,6.20
2019-04-30T19:51:53.219Z,4.67
2019-04-30T19:54:21.774Z,5.15
2019-04-30T19:56:51.633Z,4.47
2019-04-30T19:59:21.340Z,4.28
2019-04-30T20:01:51.100Z,4.78
2019-04-30T20:04:32.637Z,4.85
2019-04-30T20:06:52.629Z,7.30
2019-04-30T20:09:22.777Z,5.83
2019-04-30T20:11:52.644Z,5.70
2019-04-30T20:14:22.524Z,10.33
2019-04-30T20:16:54.161Z,5.37
2019-04-30T20:19:23.926Z,5.10
2019-04-30T20:21:54.138Z,4.97
2019-04-30T20:24:23.942Z,5.03
2019-04-30T20:27:04.160Z,5.47
2019-04-30T20:29:25.645Z,4.53
2019-04-30T20:31:55.356Z,4.37
2019-04-30T20:34:25.070Z,3.98
2019-04-30T20:36:54.921Z,5.47
2019-04-30T20:39:30.936Z,4.62
2019-04-30T20:42:00.665Z,7.12
2019-04-30T20:44:30.341Z,3.85
2019-04-30T20:47:00.100Z,5.37
2019-04-30T20:49:29.822Z,4.65
2019-04-30T20:51:59.585Z,5.35
2019-04-30T20:54:30.608Z,6.12
2019-04-30T20:57:00.472Z,4.87
2019-04-30T20:59:30.218Z,5.40
2019-04-30T21:02:00.034Z,5.35
2019-04-30T21:04:29.751Z,7.55
2019-04-30T21:07:03.614Z,4.87
2019-04-30T21:09:42.173Z,5.42
2019-04-30T21:12:13.081Z,4.70
2019-04-30T21:14:42.890Z,4.53
2019-04-30T21:17:12.586Z,4.25
2019-04-30T21:19:42.309Z,6.72
2019-04-30T21:22:12.089Z,5.45
2019-04-30T21:24:42.176Z,6.45
2019-04-30T21:27:12.355Z,4.67
2019-04-30T21:29:43.690Z,4.55
2019-04-30T21:32:21.600Z,4.10
2019-04-30T21:35:01.481Z,4.83
2019-04-30T21:37:31.282Z,7.20
2019-04-30T21:40:00.955Z,6.63
2019-04-30T21:42:30.640Z,4.33
2019-04-30T21:45:00.360Z,4.97
2019-04-30T21:47:30.058Z,6.30
2019-04-30T21:49:59.745Z,4.95
2019-04-30T21:52:29.573Z,5.05
2019-04-30T21:54:59.699Z,6.62
2019-04-30T21:57:29.450Z,4.92
2019-04-30T21:59:59.492Z,6.67
2019-04-30T22:02:29.252Z,6.33
2019-04-30T22:04:59.026Z,4.97
2019-04-30T22:07:29.460Z,6.35
2019-04-30T22:09:59.546Z,6.75
2019-04-30T22:12:31.210Z,5.53
2019-04-30T22:15:00.625Z,5.62
2019-04-30T22:17:31.376Z,5.72
2019-04-30T22:20:01.084Z,6.22
2019-04-30T22:22:30.805Z,6.30
2019-04-30T22:25:00.498Z,7.15
2019-04-30T22:27:30.210Z,6.20
2019-04-30T22:29:59.903Z,6.22
2019-04-30T22:32:30.036Z,4.78
2019-04-30T22:35:18.921Z,5.20
2019-04-30T22:37:51.295Z,5.58
2019-04-30T22:40:20.977Z,4.08
2019-04-30T22:42:52.001Z,4.45
2019-04-30T22:45:29.824Z,4.85
2019-04-30T22:47:59.526Z,5.42
2019-04-30T22:50:29.228Z,5.75
2019-04-30T22:52:58.923Z,6.15
2019-04-30T22:55:28.633Z,8.20
2019-04-30T22:57:58.332Z,5.37
2019-04-30T23:00:38.143Z,5.85
2019-04-30T23:03:14.096Z,4.93
2019-04-30T23:05:44.182Z,6.65
2019-04-30T23:08:13.905Z,5.62
2019-04-30T23:10:43.681Z,6.97
2019-04-30T23:13:13.380Z,6.25
2019-04-30T23:15:43.086Z,6.10
2019-04-30T23:18:12.751Z,6.50
2019-04-30T23:20:42.429Z,6.62
2019-04-30T23:23:12.187Z,6.20
2019-04-30T23:25:41.970Z,7.40
2019-04-30T23:28:11.647Z,5.97
2019-04-30T23:30:41.393Z,7.53
2019-04-30T23:33:11.140Z,5.35
2019-04-30T23:35:40.856Z,6.80
2019-04-30T23:38:10.530Z,8.08
2019-04-30T23:40:48.019Z,6.92
2019-04-30T23:43:17.822Z,5.20
2019-04-30T23:45:47.621Z,7.62
2019-04-30T23:48:17.361Z,4.78
2019-04-30T23:50:47.168Z,7.83
2019-04-30T23:53:16.888Z,5.97
2019-04-30T23:55:47.202Z,5.35
2019-04-30T23:58:16.865Z,6.25
